createdAt,value
2022-12-19T00:01:33.373Z,36.13
2022-12-19T00:04:22.235Z,41.45
2022-12-19T00:06:55.566Z,25.83
2022-12-19T00:09:42.345Z,36.83
2022-12-19T00:12:19.181Z,30.98
2022-12-19T00:15:06.377Z,35.97
2022-12-19T00:17:46.233Z,30.85
2022-12-19T00:20:40.246Z,26.45
2022-12-19T00:23:28.303Z,26.85
2022-12-19T00:26:01.345Z,38.72
2022-12-19T00:28:50.276Z,33.92
2022-12-19T00:31:32.337Z,32.47
2022-12-19T00:34:28.346Z,29.15
2022-12-19T00:37:15.363Z,59.08
2022-12-19T00:39:48.333Z,35.33
2022-12-19T00:42:42.237Z,34.13
2022-12-19T00:45:39.620Z,30.40
2022-12-19T00:48:27.293Z,36.63
2022-12-19T00:51:10.310Z,50.40
2022-12-19T00:53:57.252Z,43.13
2022-12-19T00:56:35.231Z,38.05
2022-12-19T00:59:26.503Z,35.70
2022-12-19T01:02:00.512Z,30.98
2022-12-19T01:04:47.251Z,39.85
2022-12-19T01:07:27.257Z,30.58
2022-12-19T01:10:21.277Z,36.30
2022-12-19T01:13:09.245Z,44.30
2022-12-19T01:15:46.332Z,49.90
2022-12-19T01:18:33.243Z,27.77
2022-12-19T01:21:09.340Z,40.38
2022-12-19T01:23:56.278Z,56.88
2022-12-19T01:26:29.302Z,32.92
2022-12-19T01:29:16.284Z,40.75
2022-12-19T01:31:49.422Z,63.13
2022-12-19T01:34:36.273Z,46.60
2022-12-19T01:37:09.303Z,41.65
2022-12-19T01:39:56.265Z,45.53
2022-12-19T01:42:30.321Z,42.63
2022-12-19T01:45:17.266Z,35.38
2022-12-19T01:47:58.376Z,45.47
2022-12-19T01:51:03.554Z,41.33
2022-12-19T01:53:56.250Z,46.22
2022-12-19T01:56:51.228Z,27.58
2022-12-19T01:59:40.238Z,36.33
2022-12-19T02:02:48.322Z,51.55
2022-12-19T02:05:21.290Z,30.70
2022-12-19T02:08:08.318Z,39.42
2022-12-19T02:10:41.416Z,51.47
2022-12-19T02:13:32.318Z,42.30
2022-12-19T02:16:14.356Z,33.28
2022-12-19T02:19:21.233Z,35.58
2022-12-19T02:22:17.428Z,25.50
2022-12-19T02:25:23.302Z,45.35
2022-12-19T02:28:18.272Z,36.08
2022-12-19T02:31:39.257Z,54.80
2022-12-19T02:34:39.948Z,29.45
2022-12-19T02:37:30.199Z,35.65
2022-12-19T02:40:31.327Z,27.52
2022-12-19T02:43:14.221Z,33.15
2022-12-19T02:46:03.415Z,27.77
2022-12-19T02:48:44.259Z,28.58
2022-12-19T02:51:38.255Z,22.40
2022-12-19T02:54:25.298Z,32.45
2022-12-19T02:56:58.328Z,20.08
2022-12-19T03:00:08.255Z,26.35
2022-12-19T03:02:51.181Z,24.10
2022-12-19T03:06:14.310Z,41.72
2022-12-19T03:08:59.392Z,35.22
2022-12-19T03:11:48.256Z,35.78
2022-12-19T03:14:26.373Z,40.78
2022-12-19T03:17:17.375Z,47.42
2022-12-19T03:19:50.448Z,32.63
2022-12-19T03:22:38.315Z,44.50
2022-12-19T03:25:12.370Z,32.00
2022-12-19T03:28:01.391Z,39.35
2022-12-19T03:30:38.833Z,29.27
2022-12-19T03:33:30.156Z,59.50
2022-12-19T03:36:08.377Z,35.85
2022-12-19T03:38:55.320Z,30.73
2022-12-19T03:41:56.313Z,55.28
2022-12-19T03:44:54.317Z,41.35
2022-12-19T03:47:49.293Z,25.40
2022-12-19T03:50:30.325Z,34.92
2022-12-19T03:53:32.369Z,30.45
2022-12-19T03:56:32.390Z,33.53
2022-12-19T03:59:38.316Z,25.73
2022-12-19T04:02:12.457Z,25.65
2022-12-19T04:05:05.386Z,21.92
2022-12-19T04:07:39.386Z,31.23
2022-12-19T04:10:30.283Z,21.15
2022-12-19T04:13:19.317Z,22.50
2022-12-19T04:16:18.359Z,18.38
2022-12-19T04:19:00.433Z,21.55
2022-12-19T04:21:59.348Z,38.83
2022-12-19T04:24:45.361Z,22.10
2022-12-19T04:27:47.338Z,18.65
2022-12-19T04:30:42.384Z,19.77
2022-12-19T04:33:30.349Z,22.80
2022-12-19T04:36:12.356Z,19.73
2022-12-19T04:39:06.317Z,20.65
2022-12-19T04:41:54.344Z,18.33
2022-12-19T04:44:34.321Z,18.80
2022-12-19T04:47:22.313Z,26.67
2022-12-19T04:50:03.358Z,22.60
2022-12-19T04:52:57.406Z,29.95
2022-12-19T04:55:44.336Z,26.73
2022-12-19T04:58:21.781Z,18.23
2022-12-19T05:01:11.379Z,35.40
2022-12-19T05:03:44.473Z,26.77
2022-12-19T05:06:25.304Z,35.10
2022-12-19T05:09:05.520Z,35.05
2022-12-19T05:11:45.332Z,55.17
2022-12-19T05:14:25.343Z,59.92
2022-12-19T05:17:05.321Z,47.53
2022-12-19T05:19:52.313Z,51.40
2022-12-19T05:22:25.444Z,43.08
2022-12-19T05:25:12.318Z,34.53
2022-12-19T05:27:45.379Z,31.45
2022-12-19T05:30:32.377Z,41.83
2022-12-19T05:33:12.310Z,45.72
2022-12-19T05:35:59.307Z,49.33
2022-12-19T05:38:33.393Z,64.13
2022-12-19T05:41:22.319Z,85.75
2022-12-19T05:44:00.420Z,65.70
2022-12-19T05:46:48.374Z,46.50
2022-12-19T05:49:21.416Z,46.45
2022-12-19T05:52:08.321Z,60.95
2022-12-19T05:54:48.332Z,36.13
2022-12-19T05:57:36.326Z,40.88
2022-12-19T06:00:11.389Z,55.70
2022-12-19T06:02:58.493Z,40.95
2022-12-19T06:05:31.380Z,58.83
2022-12-19T06:08:18.308Z,46.88
2022-12-19T06:10:58.318Z,42.10
2022-12-19T06:13:45.313Z,47.10
2022-12-19T06:16:24.717Z,34.75
2022-12-19T06:19:11.318Z,36.42
2022-12-19T06:21:48.108Z,47.08
2022-12-19T06:24:35.311Z,28.10
2022-12-19T06:27:08.442Z,29.15
2022-12-19T06:29:55.320Z,23.77
2022-12-19T06:32:28.580Z,38.45
2022-12-19T06:35:18.379Z,49.15
2022-12-19T06:38:01.026Z,33.47
2022-12-19T06:41:10.396Z,44.30
2022-12-19T06:43:53.817Z,42.97
2022-12-19T06:46:47.376Z,40.05
2022-12-19T06:49:34.326Z,31.00
2022-12-19T06:52:09.269Z,35.35
2022-12-19T06:54:58.683Z,30.55
2022-12-19T06:57:31.391Z,39.58
2022-12-19T07:00:20.373Z,31.05
2022-12-19T07:02:56.422Z,36.03
2022-12-19T07:05:43.306Z,26.58
2022-12-19T07:08:17.448Z,25.35
2022-12-19T07:11:05.377Z,25.88
2022-12-19T07:13:38.396Z,29.77
2022-12-19T07:16:25.354Z,32.65
2022-12-19T07:18:58.424Z,27.52
2022-12-19T07:21:38.389Z,41.42
2022-12-19T07:24:21.308Z,48.75
2022-12-19T07:26:54.396Z,41.30
2022-12-19T07:29:41.317Z,47.42
2022-12-19T07:32:14.411Z,29.95
2022-12-19T07:35:01.318Z,30.10
2022-12-19T07:37:34.389Z,36.58
2022-12-19T07:40:21.351Z,31.75
2022-12-19T07:43:01.309Z,30.38
2022-12-19T07:45:48.380Z,36.22
2022-12-19T07:48:30.410Z,52.63
2022-12-19T07:51:17.297Z,44.65
2022-12-19T07:53:57.313Z,63.53
2022-12-19T07:56:51.365Z,71.50
2022-12-19T07:59:45.336Z,64.35
2022-12-19T08:02:39.417Z,46.90
2022-12-19T08:05:33.353Z,29.20
2022-12-19T08:08:20.365Z,33.38
2022-12-19T08:10:53.448Z,126.78
2022-12-19T08:13:46.160Z,82.43
2022-12-19T08:16:27.324Z,39.33
2022-12-19T08:19:25.920Z,30.48
2022-12-19T08:22:14.403Z,30.52
2022-12-19T08:24:47.409Z,20.48
2022-12-19T08:27:34.373Z,51.60
2022-12-19T08:30:07.404Z,33.97
2022-12-19T08:32:55.330Z,27.90
2022-12-19T08:35:28.466Z,31.83
2022-12-19T08:38:15.347Z,35.08
2022-12-19T08:40:48.416Z,45.80
2022-12-19T08:43:35.373Z,27.08
2022-12-19T08:46:09.357Z,33.17
2022-12-19T08:48:56.382Z,30.52
2022-12-19T08:51:29.520Z,37.30
2022-12-19T08:54:16.439Z,42.20
2022-12-19T08:56:49.401Z,38.40
2022-12-19T08:59:36.371Z,50.70
2022-12-19T09:02:11.193Z,42.72
2022-12-19T09:06:01.888Z,41.72
2022-12-19T09:07:58.364Z,56.20
2022-12-19T09:10:45.356Z,41.58
2022-12-19T09:13:25.448Z,38.67
2022-12-19T09:16:26.454Z,33.92
2022-12-19T09:19:22.395Z,47.20
2022-12-19T09:22:16.394Z,30.85
2022-12-19T09:25:10.406Z,40.65
2022-12-19T09:28:26.436Z,38.92
2022-12-19T09:30:57.442Z,28.35
2022-12-19T09:33:45.358Z,45.47
2022-12-19T09:36:27.361Z,47.03
2022-12-19T09:39:21.355Z,33.22
2022-12-19T09:42:29.339Z,46.75
2022-12-19T09:45:34.375Z,63.00
2022-12-19T09:48:31.354Z,64.22
2022-12-19T09:51:27.346Z,56.13
2022-12-19T09:54:17.452Z,55.92
2022-12-19T09:57:09.396Z,38.20
2022-12-19T09:59:50.158Z,53.83
2022-12-19T10:02:55.450Z,40.63
2022-12-19T10:06:43.280Z,51.53
2022-12-19T10:10:49.115Z,78.95
2022-12-19T10:12:39.326Z,64.88
2022-12-19T10:16:01.441Z,38.88
2022-12-19T10:19:04.373Z,38.72
2022-12-19T10:22:17.552Z,37.47
2022-12-19T10:25:15.365Z,37.20
2022-12-19T10:28:01.367Z,27.15
2022-12-19T10:30:39.506Z,36.10
2022-12-19T10:33:51.343Z,33.38
2022-12-19T10:36:48.708Z,37.60
2022-12-19T10:39:37.484Z,32.03
2022-12-19T10:42:46.369Z,30.88
2022-12-19T10:45:29.381Z,26.50
2022-12-19T10:48:30.553Z,34.15
2022-12-19T10:51:20.375Z,30.70
2022-12-19T10:54:07.443Z,32.45
2022-12-19T10:57:02.405Z,30.17
2022-12-19T11:00:10.398Z,32.78
2022-12-19T11:03:10.478Z,40.17
2022-12-19T11:05:58.273Z,51.97
2022-12-19T11:08:39.389Z,44.50
2022-12-19T11:14:40.691Z,34.75
2022-12-19T11:19:50.971Z,38.38
2022-12-19T11:29:15.400Z,37.35
2022-12-19T11:29:35.300Z,42.28
2022-12-19T11:29:54.791Z,37.30
2022-12-19T11:30:59.413Z,48.40
2022-12-19T11:33:30.743Z,36.40
2022-12-19T11:36:50.393Z,32.30
2022-12-19T11:39:55.565Z,33.35
2022-12-19T11:43:25.562Z,46.60
2022-12-19T11:46:22.213Z,48.28
2022-12-19T11:49:25.389Z,55.45
2022-12-19T11:53:11.497Z,53.47
2022-12-19T11:56:25.406Z,36.60
2022-12-19T11:59:34.412Z,41.65
2022-12-19T12:02:35.390Z,43.45
2022-12-19T12:06:04.398Z,53.40
2022-12-19T12:14:15.474Z,51.60
2022-12-19T12:19:15.444Z,57.15
2022-12-19T12:28:01.715Z,39.90
2022-12-19T12:31:14.427Z,37.95
2022-12-19T12:31:26.378Z,34.63
2022-12-19T12:31:44.252Z,35.33
2022-12-19T12:31:49.682Z,37.55
2022-12-19T12:35:42.376Z,31.67
2022-12-19T12:38:13.785Z,28.77
2022-12-19T12:40:09.563Z,32.20
2022-12-19T12:43:39.412Z,38.03
2022-12-19T12:46:32.420Z,31.00
2022-12-19T12:49:19.388Z,40.03
2022-12-19T12:52:15.411Z,33.92
2022-12-19T12:55:11.398Z,28.73
2022-12-19T12:57:58.430Z,32.60
2022-12-19T13:00:35.834Z,37.33
2022-12-19T13:03:25.407Z,36.65
2022-12-19T13:06:20.445Z,36.17
2022-12-19T13:09:23.400Z,51.00
2022-12-19T13:12:56.426Z,72.75
2022-12-19T13:15:51.406Z,90.72
2022-12-19T13:18:50.435Z,65.03
2022-12-19T13:22:19.427Z,50.80
2022-12-19T13:25:14.419Z,61.28
2022-12-19T13:28:08.421Z,45.65
2022-12-19T13:31:18.276Z,75.80
2022-12-19T13:34:01.407Z,93.40
2022-12-19T13:39:56.268Z,145.98
2022-12-19T13:40:16.088Z,129.60
2022-12-19T13:43:36.420Z,80.22
2022-12-19T13:46:44.426Z,65.80
2022-12-19T13:49:36.412Z,86.78
2022-12-19T13:52:11.519Z,123.28
2022-12-19T13:55:03.451Z,78.15
2022-12-19T13:57:45.490Z,84.57
2022-12-19T14:00:53.729Z,64.22
2022-12-19T14:03:52.263Z,45.35
2022-12-19T14:06:39.424Z,43.50
2022-12-19T14:11:28.109Z,52.90
2022-12-19T14:13:58.818Z,45.13
2022-12-19T14:16:14.523Z,46.15
2022-12-19T14:18:47.495Z,44.33
2022-12-19T14:22:04.242Z,51.70
2022-12-19T14:24:37.459Z,54.85
2022-12-19T14:28:20.206Z,52.92
2022-12-19T14:30:43.459Z,51.13
2022-12-19T14:33:44.993Z,51.80
2022-12-19T14:36:42.434Z,38.42
2022-12-19T14:39:29.247Z,109.55
2022-12-19T14:43:57.734Z,78.95
2022-12-19T14:53:52.476Z,43.75
2022-12-19T14:54:05.095Z,61.00
2022-12-19T14:54:29.543Z,44.95
2022-12-19T14:56:04.471Z,65.03
2022-12-19T14:58:53.971Z,59.15
2022-12-19T15:01:39.439Z,57.42
2022-12-19T15:04:47.620Z,71.28
2022-12-19T15:07:33.443Z,68.35
2022-12-19T15:11:08.480Z,64.45
2022-12-19T15:14:55.304Z,55.45
2022-12-19T15:16:34.966Z,57.90
2022-12-19T15:19:19.437Z,63.70
2022-12-19T15:21:59.578Z,54.45
2022-12-19T15:24:39.453Z,65.35
2022-12-19T15:27:21.505Z,73.47
2022-12-19T15:30:01.458Z,55.78
2022-12-19T15:32:41.534Z,77.25
2022-12-19T15:35:23.463Z,199.30
2022-12-19T15:38:03.546Z,131.77
2022-12-19T15:40:46.480Z,89.85
2022-12-19T15:44:02.459Z,108.15
2022-12-19T15:46:41.345Z,65.57
2022-12-19T15:49:34.454Z,58.92
2022-12-19T15:52:32.456Z,81.18
2022-12-19T15:55:27.441Z,92.95
2022-12-19T15:58:16.439Z,97.45
2022-12-19T16:00:57.543Z,88.38
2022-12-19T16:03:45.632Z,78.80
2022-12-19T16:06:20.607Z,79.38
2022-12-19T16:09:07.435Z,77.80
2022-12-19T16:11:40.534Z,70.95
2022-12-19T16:14:28.465Z,80.97
2022-12-19T16:17:02.591Z,70.97
2022-12-19T16:19:49.486Z,64.25
2022-12-19T16:22:28.593Z,62.30
2022-12-19T16:25:18.405Z,73.40
2022-12-19T16:28:07.481Z,71.80
2022-12-19T16:31:02.481Z,75.53
2022-12-19T16:33:49.468Z,76.35
2022-12-19T16:36:22.577Z,84.10
2022-12-19T16:39:09.453Z,78.60
2022-12-19T16:41:50.494Z,91.47
2022-12-19T16:44:46.476Z,81.80
2022-12-19T16:47:40.476Z,127.07
2022-12-19T16:50:36.468Z,90.07
2022-12-19T16:53:09.787Z,72.38
2022-12-19T16:55:57.529Z,73.10
2022-12-19T16:58:43.314Z,79.18
2022-12-19T17:01:37.592Z,81.72
2022-12-19T17:04:40.484Z,70.88
2022-12-19T17:07:36.495Z,85.57
2022-12-19T17:10:32.485Z,86.22
2022-12-19T17:13:29.479Z,79.65
2022-12-19T17:16:23.556Z,102.30
2022-12-19T17:19:17.976Z,114.57
2022-12-19T17:22:04.495Z,74.80
2022-12-19T17:24:44.460Z,80.00
2022-12-19T17:27:38.493Z,58.30
2022-12-19T17:30:26.571Z,64.10
2022-12-19T17:33:03.292Z,56.80
2022-12-19T17:35:51.473Z,61.15
2022-12-19T17:38:24.662Z,78.50
2022-12-19T17:41:11.496Z,79.07
2022-12-19T17:43:51.470Z,74.60
2022-12-19T17:46:51.499Z,74.95
2022-12-19T17:49:39.474Z,78.55
2022-12-19T17:52:19.664Z,85.10
2022-12-19T17:55:12.083Z,86.65
2022-12-19T17:57:46.587Z,73.18
2022-12-19T18:00:35.503Z,70.65
2022-12-19T18:03:31.531Z,55.03
2022-12-19T18:06:25.474Z,67.80
2022-12-19T18:09:19.478Z,68.55
2022-12-19T18:12:06.492Z,59.53
2022-12-19T18:14:46.490Z,67.88
2022-12-19T18:17:40.517Z,58.40
2022-12-19T18:20:32.794Z,75.95
2022-12-19T18:23:07.561Z,92.30
2022-12-19T18:26:00.917Z,114.97
2022-12-19T18:28:34.579Z,115.05
2022-12-19T18:31:22.559Z,127.70
2022-12-19T18:34:02.043Z,126.03
2022-12-19T18:36:48.526Z,107.95
2022-12-19T18:39:31.505Z,95.68
2022-12-19T18:42:04.583Z,97.45
2022-12-19T18:44:58.512Z,82.57
2022-12-19T18:47:52.504Z,76.93
2022-12-19T18:50:39.507Z,55.50
2022-12-19T18:53:21.807Z,76.60
2022-12-19T18:56:09.511Z,68.18
2022-12-19T18:58:43.605Z,59.92
2022-12-19T19:01:30.595Z,63.53
2022-12-19T19:04:11.527Z,57.22
2022-12-19T19:07:00.488Z,69.78
2022-12-19T19:09:33.602Z,57.22
2022-12-19T19:12:20.511Z,42.85
2022-12-19T19:15:00.504Z,46.97
2022-12-19T19:17:55.504Z,46.70
2022-12-19T19:20:45.511Z,35.22
2022-12-19T19:23:27.556Z,40.72
2022-12-19T19:26:14.539Z,40.67
2022-12-19T19:28:54.538Z,31.35
2022-12-19T19:31:52.534Z,44.97
2022-12-19T19:34:43.514Z,43.63
2022-12-19T19:37:26.530Z,48.38
2022-12-19T19:40:14.510Z,40.83
2022-12-19T19:42:47.734Z,38.67
2022-12-19T19:45:43.644Z,46.63
2022-12-19T19:48:37.533Z,40.55
2022-12-19T19:51:24.529Z,39.53
2022-12-19T19:53:57.659Z,37.95
2022-12-19T19:56:44.533Z,50.63
2022-12-19T19:59:17.607Z,34.40
2022-12-19T20:02:04.615Z,41.92
2022-12-19T20:04:38.608Z,38.55
2022-12-19T20:07:25.515Z,38.38
2022-12-19T20:10:05.545Z,42.83
2022-12-19T20:12:53.529Z,44.15
2022-12-19T20:15:26.689Z,46.63
2022-12-19T20:18:13.536Z,66.00
2022-12-19T20:20:46.637Z,65.00
2022-12-19T20:23:33.522Z,47.70
2022-12-19T20:26:08.023Z,55.00
2022-12-19T20:28:56.534Z,50.45
2022-12-19T20:31:37.580Z,49.65
2022-12-19T20:34:26.543Z,39.63
2022-12-19T20:37:06.523Z,64.40
2022-12-19T20:39:53.514Z,73.78
2022-12-19T20:42:33.534Z,53.00
2022-12-19T20:45:28.539Z,38.22
2022-12-19T20:48:15.549Z,39.70
2022-12-19T20:50:48.608Z,41.47
2022-12-19T20:53:35.550Z,34.55
2022-12-19T20:56:10.647Z,43.70
2022-12-19T20:58:57.538Z,42.53
2022-12-19T21:01:31.669Z,41.53
2022-12-19T21:04:18.668Z,52.03
2022-12-19T21:06:51.633Z,49.92
2022-12-19T21:09:38.524Z,42.35
2022-12-19T21:12:11.655Z,50.45
2022-12-19T21:14:58.534Z,46.35
2022-12-19T21:17:31.676Z,51.10
2022-12-19T21:20:18.544Z,47.50
2022-12-19T21:22:51.635Z,71.97
2022-12-19T21:25:38.534Z,47.83
2022-12-19T21:28:11.620Z,35.03
2022-12-19T21:31:11.595Z,38.85
2022-12-19T21:33:51.571Z,39.75
2022-12-19T21:36:46.551Z,31.05
2022-12-19T21:39:33.568Z,35.30
2022-12-19T21:42:06.717Z,42.55
2022-12-19T21:45:00.568Z,47.47
2022-12-19T21:47:54.567Z,39.50
2022-12-19T21:50:41.562Z,35.88
2022-12-19T21:53:14.641Z,37.00
2022-12-19T21:56:09.545Z,42.75
2022-12-19T21:58:42.632Z,30.27
2022-12-19T22:01:30.642Z,35.05
2022-12-19T22:04:07.727Z,30.92
2022-12-19T22:06:55.582Z,31.15
2022-12-19T22:09:36.552Z,25.95
2022-12-19T22:12:23.567Z,31.90
2022-12-19T22:15:05.561Z,25.52
2022-12-19T22:17:59.585Z,23.17
2022-12-19T22:20:50.602Z,23.45
2022-12-19T22:23:23.627Z,26.48
2022-12-19T22:26:20.576Z,37.50
2022-12-19T22:28:56.664Z,44.72
2022-12-19T22:31:45.646Z,35.08
2022-12-19T22:34:21.625Z,28.27
2022-12-19T22:37:08.564Z,29.33
2022-12-19T22:39:48.633Z,28.77
2022-12-19T22:42:42.582Z,30.98
2022-12-19T22:45:36.603Z,29.27
2022-12-19T22:48:30.580Z,27.48
2022-12-19T22:51:17.685Z,18.33
2022-12-19T22:53:50.652Z,22.95
2022-12-19T22:56:39.586Z,25.35
2022-12-19T22:59:21.589Z,19.23
2022-12-19T23:02:15.782Z,24.60
2022-12-19T23:05:02.623Z,25.98
2022-12-19T23:07:35.705Z,26.73
2022-12-19T23:10:22.665Z,25.40
2022-12-19T23:12:55.709Z,26.67
2022-12-19T23:15:42.599Z,24.42
2022-12-19T23:18:16.056Z,23.02
2022-12-19T23:21:16.594Z,25.00
2022-12-19T23:23:58.587Z,24.80
2022-12-19T23:26:45.583Z,25.58
2022-12-19T23:29:28.584Z,20.00
2022-12-19T23:32:22.637Z,24.10
2022-12-19T23:35:16.580Z,22.75
2022-12-19T23:38:03.587Z,21.98
2022-12-19T23:40:43.569Z,27.60
2022-12-19T23:43:30.613Z,24.58
2022-12-19T23:46:10.671Z,22.10
2022-12-19T23:48:59.632Z,25.80
2022-12-19T23:51:40.603Z,26.08
2022-12-19T23:54:27.585Z,23.73
2022-12-19T23:57:07.600Z,24.15
